createdAt,value
2018-12-05T00:00:22.932Z,21.95
2018-12-05T00:00:54.530Z,21.94
2018-12-05T00:01:26.129Z,21.94
2018-12-05T00:01:57.726Z,21.92
2018-12-05T00:02:29.318Z,21.92
2018-12-05T00:03:00.921Z,21.92
2018-12-05T00:03:32.570Z,21.91
2018-12-05T00:04:04.162Z,21.90
2018-12-05T00:04:35.764Z,21.90
2018-12-05T00:05:07.358Z,21.91
2018-12-05T00:05:38.950Z,21.91
2018-12-05T00:06:10.568Z,21.90
2018-12-05T00:06:42.165Z,21.91
2018-12-05T00:07:13.772Z,21.90
2018-12-05T00:07:45.384Z,21.90
2018-12-05T00:08:16.992Z,21.90
2018-12-05T00:08:48.600Z,21.89
2018-12-05T00:09:20.198Z,21.89
2018-12-05T00:09:51.814Z,21.89
2018-12-05T00:10:23.410Z,21.88
2018-12-05T00:10:55.006Z,21.87
2018-12-05T00:11:26.598Z,21.87
2018-12-05T00:11:58.212Z,21.85
2018-12-05T00:12:29.825Z,21.85
2018-12-05T00:13:01.419Z,21.85
2018-12-05T00:13:33.018Z,21.86
2018-12-05T00:14:04.638Z,21.85
2018-12-05T00:14:36.252Z,21.85
2018-12-05T00:15:08.019Z,21.83
2018-12-05T00:15:39.615Z,21.84
2018-12-05T00:16:11.201Z,21.83
2018-12-05T00:16:42.794Z,21.81
2018-12-05T00:17:14.404Z,21.82
2018-12-05T00:17:46.016Z,21.80
2018-12-05T00:18:17.629Z,21.83
2018-12-05T00:18:49.265Z,21.81
2018-12-05T00:19:20.848Z,21.79
2018-12-05T00:19:52.449Z,21.81
2018-12-05T00:20:24.037Z,21.81
2018-12-05T00:20:55.648Z,21.81
2018-12-05T00:21:27.247Z,21.80
2018-12-05T00:21:58.860Z,21.80
2018-12-05T00:22:30.464Z,21.79
2018-12-05T00:23:02.071Z,21.78
2018-12-05T00:23:33.666Z,21.76
2018-12-05T00:24:05.292Z,21.76
2018-12-05T00:24:36.896Z,21.75
2018-12-05T00:25:08.490Z,21.74
2018-12-05T00:25:40.076Z,21.73
2018-12-05T00:26:11.674Z,21.72
2018-12-05T00:26:43.266Z,21.72
2018-12-05T00:27:14.863Z,21.73
2018-12-05T00:27:46.459Z,21.72
2018-12-05T00:28:18.054Z,21.70
2018-12-05T00:28:49.674Z,21.73
2018-12-05T00:29:21.261Z,21.72
2018-12-05T00:29:52.868Z,21.72
2018-12-05T00:30:24.477Z,21.71
2018-12-05T00:30:56.084Z,21.68
2018-12-05T00:31:27.678Z,21.69
2018-12-05T00:31:59.288Z,21.67
2018-12-05T00:32:30.886Z,21.66
2018-12-05T00:33:02.491Z,21.66
2018-12-05T00:33:34.081Z,21.65
2018-12-05T00:34:05.705Z,21.65
2018-12-05T00:34:37.307Z,21.65
2018-12-05T00:35:08.901Z,21.64
2018-12-05T00:35:40.494Z,21.63
2018-12-05T00:36:12.082Z,21.62
2018-12-05T00:36:43.674Z,21.62
2018-12-05T00:37:15.279Z,21.60
2018-12-05T00:37:46.878Z,21.59
2018-12-05T00:38:18.479Z,21.59
2018-12-05T00:38:50.102Z,21.58
2018-12-05T00:39:21.697Z,21.59
2018-12-05T00:39:53.300Z,21.59
2018-12-05T00:40:24.893Z,21.59
2018-12-05T00:40:56.503Z,21.59
2018-12-05T00:41:28.098Z,21.59
2018-12-05T00:41:59.709Z,21.60
2018-12-05T00:42:31.331Z,21.62
2018-12-05T00:43:02.939Z,21.61
2018-12-05T00:43:34.547Z,21.62
2018-12-05T00:44:06.184Z,21.64
2018-12-05T00:44:37.781Z,21.65
2018-12-05T00:45:09.387Z,21.65
2018-12-05T00:45:40.992Z,21.65
2018-12-05T00:46:12.595Z,21.67
2018-12-05T00:46:44.209Z,21.68
2018-12-05T00:47:15.820Z,21.68
2018-12-05T00:47:47.401Z,21.72
2018-12-05T00:48:18.994Z,21.73
2018-12-05T00:48:50.619Z,21.73
2018-12-05T00:49:22.232Z,21.74
2018-12-05T00:49:53.823Z,21.75
2018-12-05T00:50:25.423Z,21.75
2018-12-05T00:50:57.021Z,21.77
2018-12-05T00:51:28.630Z,21.77
2018-12-05T00:52:00.242Z,21.78
2018-12-05T00:52:31.837Z,21.80
2018-12-05T00:53:03.432Z,21.80
2018-12-05T00:53:35.030Z,21.81
2018-12-05T00:54:06.650Z,21.74
2018-12-05T00:54:38.265Z,21.82
2018-12-05T00:55:09.858Z,21.84
2018-12-05T00:55:41.460Z,21.85
2018-12-05T00:56:13.071Z,21.87
2018-12-05T00:56:44.669Z,21.87
2018-12-05T00:57:16.276Z,21.88
2018-12-05T00:57:47.889Z,21.89
2018-12-05T00:58:19.580Z,21.89
2018-12-05T00:58:51.173Z,21.90
2018-12-05T00:59:22.789Z,21.90
2018-12-05T00:59:54.376Z,21.90
2018-12-05T01:00:25.970Z,21.91
2018-12-05T01:00:57.572Z,21.92
2018-12-05T01:01:29.161Z,21.93
2018-12-05T01:02:00.760Z,21.83
2018-12-05T01:02:32.353Z,21.93
2018-12-05T01:03:03.946Z,21.94
2018-12-05T01:03:35.556Z,21.95
2018-12-05T01:04:07.192Z,21.95
2018-12-05T01:04:38.789Z,21.96
2018-12-05T01:05:10.393Z,21.96
2018-12-05T01:05:41.990Z,21.97
2018-12-05T01:06:13.597Z,21.97
2018-12-05T01:06:45.208Z,21.97
2018-12-05T01:07:16.816Z,21.98
2018-12-05T01:07:48.410Z,21.98
2018-12-05T01:08:20.018Z,21.99
2018-12-05T01:08:51.614Z,21.98
2018-12-05T01:09:23.200Z,21.99
2018-12-05T01:09:54.812Z,21.99
2018-12-05T01:10:26.416Z,22.00
2018-12-05T01:10:58.028Z,22.00
2018-12-05T01:11:29.637Z,22.01
2018-12-05T01:12:01.256Z,22.01
2018-12-05T01:12:32.854Z,21.90
2018-12-05T01:13:04.436Z,22.01
2018-12-05T01:13:36.034Z,22.01
2018-12-05T01:14:07.656Z,22.02
2018-12-05T01:14:39.301Z,22.01
2018-12-05T01:15:10.888Z,22.01
2018-12-05T01:15:42.484Z,22.01
2018-12-05T01:16:14.078Z,22.02
2018-12-05T01:16:45.688Z,22.02
2018-12-05T01:17:17.281Z,22.01
2018-12-05T01:17:48.884Z,22.01
2018-12-05T01:18:20.481Z,22.01
2018-12-05T01:18:52.096Z,22.01
2018-12-05T01:19:23.703Z,22.00
2018-12-05T01:19:55.298Z,21.97
2018-12-05T01:20:26.889Z,22.01
2018-12-05T01:20:58.491Z,21.88
2018-12-05T01:21:30.086Z,22.00
2018-12-05T01:22:01.689Z,22.00
2018-12-05T01:22:33.282Z,21.99
2018-12-05T01:23:04.889Z,21.99
2018-12-05T01:23:36.486Z,21.99
2018-12-05T01:24:08.222Z,21.99
2018-12-05T01:24:39.828Z,22.00
2018-12-05T01:25:11.430Z,21.99
2018-12-05T01:25:43.052Z,21.99
2018-12-05T01:26:14.654Z,21.98
2018-12-05T01:26:46.250Z,21.76
2018-12-05T01:27:17.843Z,21.97
2018-12-05T01:27:49.452Z,21.96
2018-12-05T01:28:21.063Z,21.95
2018-12-05T01:28:52.668Z,21.95
2018-12-05T01:29:24.285Z,21.96
2018-12-05T01:29:55.885Z,21.97
2018-12-05T01:30:27.561Z,21.98
2018-12-05T01:30:59.135Z,21.34
2018-12-05T01:31:30.734Z,21.97
2018-12-05T01:32:02.334Z,21.96
2018-12-05T01:32:33.920Z,21.98
2018-12-05T01:33:05.515Z,21.98
2018-12-05T01:33:37.110Z,21.96
2018-12-05T01:34:08.705Z,21.95
2018-12-05T01:34:40.669Z,21.93
2018-12-05T01:35:12.275Z,21.92
2018-12-05T01:35:43.870Z,21.92
2018-12-05T01:36:15.482Z,21.94
2018-12-05T01:36:47.081Z,21.91
2018-12-05T01:37:18.687Z,21.92
2018-12-05T01:37:50.293Z,21.91
2018-12-05T01:38:21.886Z,21.88
2018-12-05T01:38:53.482Z,21.85
2018-12-05T01:39:25.091Z,21.83
2018-12-05T01:39:56.687Z,21.81
2018-12-05T01:40:28.298Z,21.79
2018-12-05T01:40:59.914Z,21.78
2018-12-05T01:41:31.528Z,21.76
2018-12-05T01:42:03.108Z,21.72
2018-12-05T01:42:34.712Z,21.73
2018-12-05T01:43:06.298Z,21.71
2018-12-05T01:43:43.528Z,21.70
2018-12-05T01:44:15.164Z,21.70
2018-12-05T01:44:46.782Z,21.69
2018-12-05T01:45:18.378Z,21.68
2018-12-05T01:45:49.997Z,21.67
2018-12-05T01:46:21.608Z,21.65
2018-12-05T01:46:53.199Z,21.65
2018-12-05T01:47:24.807Z,21.62
2018-12-05T01:47:56.395Z,21.62
2018-12-05T01:48:27.995Z,21.61
2018-12-05T01:48:59.627Z,21.60
2018-12-05T01:49:31.265Z,21.60
2018-12-05T01:50:02.858Z,21.58
2018-12-05T01:50:34.454Z,21.58
2018-12-05T01:51:06.050Z,21.58
2018-12-05T01:51:37.645Z,21.56
2018-12-05T01:52:09.252Z,21.57
2018-12-05T01:52:40.849Z,21.56
2018-12-05T01:53:12.455Z,21.55
2018-12-05T01:53:44.066Z,21.57
2018-12-05T01:54:15.677Z,21.56
2018-12-05T01:54:47.302Z,21.55
2018-12-05T01:55:18.899Z,21.54
2018-12-05T01:55:50.496Z,21.53
2018-12-05T01:56:22.095Z,21.53
2018-12-05T01:56:53.680Z,21.52
2018-12-05T01:57:25.288Z,21.51
2018-12-05T01:57:56.896Z,21.51
2018-12-05T01:58:28.500Z,21.52
2018-12-05T01:59:00.112Z,21.50
2018-12-05T01:59:31.748Z,21.50
2018-12-05T02:00:03.343Z,21.49
2018-12-05T02:00:34.938Z,21.49
2018-12-05T02:01:06.520Z,21.48
2018-12-05T02:01:38.113Z,21.47
2018-12-05T02:02:09.707Z,21.47
2018-12-05T02:02:41.301Z,21.47
2018-12-05T02:03:12.894Z,21.46
2018-12-05T02:03:44.490Z,21.48
2018-12-05T02:04:16.092Z,21.47
2018-12-05T02:04:47.723Z,21.47
2018-12-05T02:05:19.328Z,21.47
2018-12-05T02:05:50.968Z,21.45
2018-12-05T02:06:22.558Z,21.47
2018-12-05T02:06:54.169Z,21.48
2018-12-05T02:07:25.770Z,21.48
2018-12-05T02:07:57.361Z,21.49
2018-12-05T02:08:28.965Z,21.49
2018-12-05T02:09:00.587Z,21.49
2018-12-05T02:09:32.210Z,21.49
2018-12-05T02:10:03.793Z,21.49
2018-12-05T02:10:35.396Z,21.49
2018-12-05T02:11:06.993Z,21.49
2018-12-05T02:11:38.599Z,21.49
2018-12-05T02:12:10.212Z,21.51
2018-12-05T02:12:41.805Z,21.55
2018-12-05T02:13:13.402Z,21.60
2018-12-05T02:13:44.998Z,21.63
2018-12-05T02:14:16.613Z,21.65
2018-12-05T02:14:48.238Z,21.67
2018-12-05T02:15:19.831Z,21.69
2018-12-05T02:15:51.435Z,21.71
2018-12-05T02:16:23.044Z,21.71
2018-12-05T02:16:54.642Z,21.70
2018-12-05T02:17:26.238Z,21.74
2018-12-05T02:17:57.832Z,21.73
2018-12-05T02:18:29.416Z,21.76
2018-12-05T02:19:00.996Z,21.78
2018-12-05T02:19:32.632Z,21.81
2018-12-05T02:20:04.253Z,21.80
2018-12-05T02:20:35.860Z,21.85
2018-12-05T02:21:07.464Z,21.86
2018-12-05T02:21:39.080Z,21.86
2018-12-05T02:22:10.674Z,21.90
2018-12-05T02:22:42.272Z,21.90
2018-12-05T02:23:13.866Z,21.92
2018-12-05T02:23:45.448Z,21.91
2018-12-05T02:24:17.046Z,21.92
2018-12-05T02:24:48.669Z,21.93
2018-12-05T02:25:20.276Z,21.93
2018-12-05T02:25:51.874Z,21.95
2018-12-05T02:26:23.466Z,21.96
2018-12-05T02:26:55.049Z,21.96
2018-12-05T02:27:26.668Z,21.97
2018-12-05T02:27:58.280Z,21.98
2018-12-05T02:28:29.864Z,21.98
2018-12-05T02:29:01.455Z,21.99
2018-12-05T02:29:38.947Z,22.00
2018-12-05T02:30:10.621Z,22.03
2018-12-05T02:30:42.214Z,22.02
2018-12-05T02:31:13.814Z,22.03
2018-12-05T02:31:45.409Z,22.03
2018-12-05T02:32:16.996Z,22.03
2018-12-05T02:32:48.599Z,22.03
2018-12-05T02:33:20.199Z,22.04
2018-12-05T02:33:51.812Z,22.04
2018-12-05T02:34:23.421Z,22.05
2018-12-05T02:34:55.033Z,22.05
2018-12-05T02:35:26.616Z,22.04
2018-12-05T02:35:58.213Z,22.04
2018-12-05T02:36:29.821Z,22.04
2018-12-05T02:37:01.430Z,22.03
2018-12-05T02:37:33.030Z,21.81
2018-12-05T02:38:04.626Z,22.02
2018-12-05T02:38:36.232Z,22.03
2018-12-05T02:39:07.812Z,22.02
2018-12-05T02:39:39.446Z,22.03
2018-12-05T02:40:11.066Z,22.04
2018-12-05T02:40:42.676Z,22.05
2018-12-05T02:41:14.271Z,22.04
2018-12-05T02:41:45.868Z,22.03
2018-12-05T02:42:17.466Z,22.04
2018-12-05T02:42:49.061Z,22.04
2018-12-05T02:43:20.673Z,22.03
2018-12-05T02:43:52.270Z,22.03
2018-12-05T02:44:23.865Z,22.02
2018-12-05T02:44:55.496Z,22.00
2018-12-05T02:45:27.098Z,22.02
2018-12-05T02:45:58.700Z,22.02
2018-12-05T02:46:30.306Z,22.01
2018-12-05T02:47:01.885Z,22.01
2018-12-05T02:47:33.485Z,22.01
2018-12-05T02:48:05.096Z,22.00
2018-12-05T02:48:36.690Z,22.00
2018-12-05T02:49:08.288Z,21.99
2018-12-05T02:49:39.909Z,21.97
2018-12-05T02:50:11.540Z,21.97
2018-12-05T02:50:43.124Z,21.96
2018-12-05T02:51:14.726Z,21.94
2018-12-05T02:51:46.335Z,21.93
2018-12-05T02:52:17.934Z,21.92
2018-12-05T02:52:49.521Z,21.92
2018-12-05T02:53:21.117Z,21.90
2018-12-05T02:53:52.790Z,21.89
2018-12-05T02:54:24.390Z,21.89
2018-12-05T02:54:56.000Z,21.89
2018-12-05T02:55:27.612Z,21.90
2018-12-05T02:55:59.225Z,21.88
2018-12-05T02:56:30.831Z,21.85
2018-12-05T02:57:02.461Z,21.83
2018-12-05T02:57:34.054Z,21.81
2018-12-05T02:58:05.646Z,21.80
2018-12-05T02:58:37.247Z,21.77
2018-12-05T02:59:08.856Z,21.74
2018-12-05T02:59:40.464Z,21.73
2018-12-05T03:00:12.091Z,21.71
2018-12-05T03:00:43.683Z,21.70
2018-12-05T03:01:15.300Z,21.69
2018-12-05T03:01:46.911Z,21.67
2018-12-05T03:02:18.511Z,21.65
2018-12-05T03:02:50.111Z,21.64
2018-12-05T03:03:21.697Z,21.63
2018-12-05T03:03:53.310Z,21.63
2018-12-05T03:04:24.912Z,21.62
2018-12-05T03:04:56.539Z,21.61
2018-12-05T03:05:28.143Z,21.61
2018-12-05T03:05:59.753Z,21.59
2018-12-05T03:06:31.365Z,21.59
2018-12-05T03:07:03.077Z,21.57
2018-12-05T03:07:34.753Z,21.58
2018-12-05T03:08:06.340Z,21.58
2018-12-05T03:08:37.956Z,21.58
2018-12-05T03:09:09.555Z,21.57
2018-12-05T03:09:41.151Z,21.56
2018-12-05T03:10:12.770Z,21.56
2018-12-05T03:10:44.361Z,21.55
2018-12-05T03:11:15.953Z,21.54
2018-12-05T03:11:47.565Z,21.54
2018-12-05T03:12:19.163Z,21.54
2018-12-05T03:12:50.744Z,21.54
2018-12-05T03:13:22.333Z,21.53
2018-12-05T03:13:53.944Z,21.29
2018-12-05T03:14:25.556Z,21.52
2018-12-05T03:14:57.190Z,21.52
2018-12-05T03:15:28.789Z,21.51
2018-12-05T03:16:00.409Z,21.50
2018-12-05T03:16:32.011Z,21.50
2018-12-05T03:17:03.630Z,21.48
2018-12-05T03:17:35.225Z,21.47
2018-12-05T03:18:06.823Z,21.46
2018-12-05T03:18:38.438Z,21.45
2018-12-05T03:19:10.034Z,21.44
2018-12-05T03:19:41.630Z,21.43
2018-12-05T03:20:13.254Z,21.43
2018-12-05T03:20:44.869Z,21.41
2018-12-05T03:21:16.482Z,21.40
2018-12-05T03:21:48.078Z,21.40
2018-12-05T03:22:19.671Z,21.40
2018-12-05T03:22:51.262Z,21.39
2018-12-05T03:23:22.854Z,21.39
2018-12-05T03:23:54.450Z,21.39
2018-12-05T03:24:26.050Z,21.39
2018-12-05T03:24:57.686Z,21.38
2018-12-05T03:25:29.311Z,21.37
2018-12-05T03:26:00.901Z,21.38
2018-12-05T03:26:32.494Z,21.38
2018-12-05T03:27:04.098Z,21.37
2018-12-05T03:27:35.691Z,21.37
2018-12-05T03:28:07.289Z,21.39
2018-12-05T03:28:38.886Z,21.43
2018-12-05T03:29:10.482Z,21.44
2018-12-05T03:29:42.078Z,21.45
2018-12-05T03:30:13.693Z,21.46
2018-12-05T03:30:45.292Z,21.45
2018-12-05T03:31:16.897Z,21.47
2018-12-05T03:31:48.495Z,21.48
2018-12-05T03:32:20.114Z,21.50
2018-12-05T03:32:51.712Z,21.51
2018-12-05T03:33:23.329Z,21.51
2018-12-05T03:33:54.958Z,21.52
2018-12-05T03:34:26.562Z,21.50
2018-12-05T03:34:58.160Z,21.51
2018-12-05T03:35:35.556Z,21.51
2018-12-05T03:36:07.151Z,21.52
2018-12-05T03:36:38.747Z,21.52
2018-12-05T03:37:10.383Z,21.51
2018-12-05T03:37:41.975Z,21.51
2018-12-05T03:38:13.769Z,21.52
2018-12-05T03:38:45.366Z,21.52
2018-12-05T03:39:16.958Z,21.52
2018-12-05T03:39:48.566Z,21.53
2018-12-05T03:40:20.195Z,21.55
2018-12-05T03:40:51.808Z,21.61
2018-12-05T03:41:23.400Z,21.72
2018-12-05T03:41:54.985Z,21.87
2018-12-05T03:42:26.595Z,21.98
2018-12-05T03:42:58.208Z,21.96
2018-12-05T03:43:29.811Z,21.92
2018-12-05T03:44:01.406Z,21.85
2018-12-05T03:44:33.007Z,21.80
2018-12-05T03:45:04.664Z,21.76
2018-12-05T03:45:36.279Z,21.71
2018-12-05T03:46:07.879Z,21.68
2018-12-05T03:46:39.497Z,21.65
2018-12-05T03:47:11.109Z,21.63
2018-12-05T03:47:42.715Z,21.60
2018-12-05T03:48:14.337Z,21.59
2018-12-05T03:48:45.948Z,21.59
2018-12-05T03:49:17.536Z,21.58
2018-12-05T03:49:49.129Z,21.64
2018-12-05T03:50:20.758Z,21.70
2018-12-05T03:50:52.363Z,21.78
2018-12-05T03:51:23.974Z,21.86
2018-12-05T03:51:55.590Z,21.93
2018-12-05T03:52:27.189Z,22.02
2018-12-05T03:52:58.799Z,22.07
2018-12-05T03:53:30.414Z,22.12
2018-12-05T03:54:02.019Z,22.17
2018-12-05T03:54:33.626Z,22.13
2018-12-05T03:55:05.222Z,22.06
2018-12-05T03:55:36.830Z,21.99
2018-12-05T03:56:08.427Z,21.93
2018-12-05T03:56:40.045Z,21.87
2018-12-05T03:57:11.669Z,21.82
2018-12-05T03:57:43.266Z,21.75
2018-12-05T03:58:14.875Z,21.64
2018-12-05T03:58:46.530Z,21.58
2018-12-05T03:59:18.133Z,21.55
2018-12-05T03:59:49.761Z,21.54
2018-12-05T04:00:21.400Z,21.55
2018-12-05T04:00:52.998Z,21.54
2018-12-05T04:01:24.595Z,21.40
2018-12-05T04:01:56.209Z,21.49
2018-12-05T04:02:27.793Z,21.49
2018-12-05T04:02:59.385Z,21.50
2018-12-05T04:03:30.996Z,21.52
2018-12-05T04:04:02.602Z,21.54
2018-12-05T04:04:34.395Z,21.54
2018-12-05T04:05:06.044Z,21.57
2018-12-05T04:05:37.643Z,21.57
2018-12-05T04:06:09.239Z,21.57
2018-12-05T04:06:40.826Z,21.58
2018-12-05T04:07:12.413Z,21.58
2018-12-05T04:07:44.004Z,21.58
2018-12-05T04:08:15.594Z,21.60
2018-12-05T04:08:47.206Z,21.60
2018-12-05T04:09:18.796Z,21.60
2018-12-05T04:09:50.404Z,21.60
2018-12-05T04:10:22.011Z,21.62
2018-12-05T04:10:53.617Z,21.62
2018-12-05T04:11:25.225Z,21.61
2018-12-05T04:11:56.822Z,21.60
2018-12-05T04:12:28.418Z,21.60
2018-12-05T04:13:00.001Z,21.59
2018-12-05T04:13:31.604Z,21.58
2018-12-05T04:14:03.212Z,21.58
2018-12-05T04:14:34.801Z,21.57
2018-12-05T04:15:06.394Z,21.58
2018-12-05T04:15:37.990Z,21.58
2018-12-05T04:16:09.600Z,21.57
2018-12-05T04:16:41.193Z,21.54
2018-12-05T04:17:12.801Z,21.55
2018-12-05T04:17:44.396Z,21.53
2018-12-05T04:18:16.000Z,21.53
2018-12-05T04:18:47.710Z,21.53
2018-12-05T04:19:19.310Z,21.52
2018-12-05T04:19:50.920Z,21.52
2018-12-05T04:20:22.559Z,21.51
2018-12-05T04:20:54.144Z,21.49
2018-12-05T04:21:25.734Z,21.49
2018-12-05T04:21:57.344Z,21.49
2018-12-05T04:22:29.272Z,21.47
2018-12-05T04:23:01.093Z,21.46
2018-12-05T04:23:32.997Z,21.45
2018-12-05T04:24:04.957Z,21.45
2018-12-05T04:24:36.878Z,21.44
2018-12-05T04:25:08.809Z,21.44
2018-12-05T04:25:40.472Z,21.44
2018-12-05T04:26:12.079Z,21.42
2018-12-05T04:26:43.698Z,21.41
2018-12-05T04:27:15.290Z,21.39
2018-12-05T04:27:46.878Z,21.38
2018-12-05T04:28:18.479Z,21.38
2018-12-05T04:28:50.217Z,21.37
2018-12-05T04:29:21.813Z,21.37
2018-12-05T04:29:53.406Z,21.36
2018-12-05T04:30:25.065Z,21.35
2018-12-05T04:30:56.663Z,21.34
2018-12-05T04:31:28.294Z,21.33
2018-12-05T04:31:59.890Z,21.32
2018-12-05T04:32:31.500Z,21.31
2018-12-05T04:33:03.120Z,21.30
2018-12-05T04:33:34.727Z,21.29
2018-12-05T04:34:06.332Z,21.26
2018-12-05T04:34:38.065Z,21.27
2018-12-05T04:35:09.610Z,21.27
2018-12-05T04:35:41.217Z,21.26
2018-12-05T04:36:12.830Z,21.25
2018-12-05T04:36:44.423Z,21.24
2018-12-05T04:37:16.034Z,21.24
2018-12-05T04:37:47.652Z,21.23
2018-12-05T04:38:19.246Z,21.22
2018-12-05T04:38:50.851Z,21.21
2018-12-05T04:39:22.436Z,21.20
2018-12-05T04:39:54.029Z,21.20
2018-12-05T04:40:25.623Z,21.19
2018-12-05T04:40:57.241Z,21.17
2018-12-05T04:41:28.838Z,21.18
2018-12-05T04:42:00.429Z,21.17
2018-12-05T04:42:32.021Z,21.17
2018-12-05T04:43:03.623Z,21.16
2018-12-05T04:43:35.236Z,21.16
2018-12-05T04:44:06.823Z,21.16
2018-12-05T04:44:38.436Z,21.15
2018-12-05T04:45:10.050Z,21.15
2018-12-05T04:45:41.674Z,21.13
2018-12-05T04:46:13.272Z,21.12
2018-12-05T04:46:44.877Z,21.11
2018-12-05T04:47:16.491Z,21.11
2018-12-05T04:47:48.104Z,21.11
2018-12-05T04:48:19.701Z,21.10
2018-12-05T04:48:51.337Z,21.10
2018-12-05T04:49:22.935Z,21.11
2018-12-05T04:49:54.540Z,21.10
2018-12-05T04:50:26.140Z,21.09
2018-12-05T04:50:57.772Z,21.09
2018-12-05T04:51:29.370Z,21.08
2018-12-05T04:52:00.956Z,21.07
2018-12-05T04:52:32.550Z,21.07
2018-12-05T04:53:04.157Z,21.08
2018-12-05T04:53:35.759Z,21.07
2018-12-05T04:54:07.355Z,21.08
2018-12-05T04:54:38.946Z,21.07
2018-12-05T04:55:10.555Z,21.07
2018-12-05T04:55:42.155Z,21.06
2018-12-05T04:56:13.782Z,21.07
2018-12-05T04:56:45.379Z,21.06
2018-12-05T04:57:16.964Z,21.08
2018-12-05T04:57:48.579Z,21.08
2018-12-05T04:58:20.176Z,21.08
2018-12-05T04:58:52.073Z,21.09
2018-12-05T04:59:23.682Z,21.09
2018-12-05T04:59:55.269Z,21.09
2018-12-05T05:00:26.862Z,21.10
2018-12-05T05:00:58.501Z,21.08
2018-12-05T05:01:30.099Z,21.11
2018-12-05T05:02:01.716Z,21.12
2018-12-05T05:02:33.331Z,21.13
2018-12-05T05:03:04.941Z,21.14
2018-12-05T05:03:36.538Z,21.13
2018-12-05T05:04:08.155Z,21.16
2018-12-05T05:04:39.776Z,21.18
2018-12-05T05:05:11.380Z,21.20
2018-12-05T05:05:42.974Z,21.21
2018-12-05T05:06:14.593Z,21.21
2018-12-05T05:06:46.192Z,21.23
2018-12-05T05:07:17.790Z,21.24
2018-12-05T05:07:49.383Z,21.25
2018-12-05T05:08:20.979Z,21.27
2018-12-05T05:08:52.574Z,21.30
2018-12-05T05:09:24.166Z,21.32
2018-12-05T05:09:55.789Z,21.34
2018-12-05T05:10:27.392Z,21.36
2018-12-05T05:10:59.004Z,21.36
2018-12-05T05:11:30.672Z,21.38
2018-12-05T05:12:02.280Z,21.40
2018-12-05T05:12:33.887Z,21.42
2018-12-05T05:13:05.502Z,21.44
2018-12-05T05:13:37.089Z,21.45
2018-12-05T05:14:08.682Z,21.48
2018-12-05T05:14:40.294Z,21.49
2018-12-05T05:15:11.893Z,21.51
2018-12-05T05:15:43.493Z,21.53
2018-12-05T05:16:15.200Z,21.55
2018-12-05T05:16:46.791Z,21.58
2018-12-05T05:17:18.376Z,21.59
2018-12-05T05:17:49.974Z,21.59
2018-12-05T05:18:21.566Z,21.64
2018-12-05T05:18:53.154Z,21.65
2018-12-05T05:19:24.753Z,21.67
2018-12-05T05:19:56.340Z,21.67
2018-12-05T05:20:27.948Z,21.68
2018-12-05T05:20:59.574Z,21.69
2018-12-05T05:21:31.184Z,21.70
2018-12-05T05:22:02.804Z,21.71
2018-12-05T05:22:34.419Z,21.71
2018-12-05T05:23:06.007Z,21.73
2018-12-05T05:23:37.637Z,21.73
2018-12-05T05:24:09.235Z,21.73
2018-12-05T05:24:40.848Z,21.75
2018-12-05T05:25:12.474Z,21.74
2018-12-05T05:25:44.080Z,21.75
2018-12-05T05:26:15.699Z,21.75
2018-12-05T05:26:47.308Z,21.74
2018-12-05T05:27:18.902Z,21.74
2018-12-05T05:27:50.509Z,21.75
2018-12-05T05:28:22.140Z,21.74
2018-12-05T05:28:53.724Z,21.72
2018-12-05T05:29:25.341Z,21.72
2018-12-05T05:29:56.934Z,21.72
2018-12-05T05:30:28.536Z,21.71
2018-12-05T05:31:00.139Z,21.72
2018-12-05T05:31:31.780Z,21.71
2018-12-05T05:32:03.378Z,21.70
2018-12-05T05:32:34.984Z,21.70
2018-12-05T05:33:06.595Z,21.60
2018-12-05T05:33:38.192Z,21.67
2018-12-05T05:34:09.791Z,21.66
2018-12-05T05:34:41.372Z,21.65
2018-12-05T05:35:12.980Z,21.63
2018-12-05T05:35:44.569Z,21.62
2018-12-05T05:36:16.275Z,21.60
2018-12-05T05:36:47.867Z,21.60
2018-12-05T05:37:19.476Z,21.58
2018-12-05T05:37:51.081Z,21.58
2018-12-05T05:38:22.672Z,21.56
2018-12-05T05:38:54.266Z,21.54
2018-12-05T05:39:25.863Z,21.54
2018-12-05T05:39:57.471Z,21.53
2018-12-05T05:40:29.076Z,21.53
2018-12-05T05:41:00.660Z,21.52
2018-12-05T05:41:32.292Z,21.52
2018-12-05T05:42:03.874Z,21.50
2018-12-05T05:42:35.469Z,21.49
2018-12-05T05:43:07.159Z,21.47
2018-12-05T05:43:38.781Z,21.46
2018-12-05T05:44:10.394Z,21.44
2018-12-05T05:44:41.986Z,21.42
2018-12-05T05:45:13.602Z,21.41
2018-12-05T05:45:45.198Z,21.41
2018-12-05T05:46:16.832Z,21.39
2018-12-05T05:46:48.440Z,21.38
2018-12-05T05:47:20.048Z,21.38
2018-12-05T05:47:51.655Z,21.37
2018-12-05T05:48:23.240Z,21.35
2018-12-05T05:48:55.920Z,21.35
2018-12-05T05:49:27.514Z,21.34
2018-12-05T05:49:59.109Z,21.33
2018-12-05T05:50:30.710Z,21.32
2018-12-05T05:51:02.302Z,21.20
2018-12-05T05:51:33.922Z,21.28
2018-12-05T05:52:05.514Z,21.26
2018-12-05T05:52:37.106Z,21.25
2018-12-05T05:53:08.693Z,21.24
2018-12-05T05:53:40.298Z,21.23
2018-12-05T05:54:11.894Z,21.21
2018-12-05T05:54:43.487Z,21.20
2018-12-05T05:55:15.074Z,21.18
2018-12-05T05:55:46.680Z,21.17
2018-12-05T05:56:18.331Z,21.17
2018-12-05T05:56:49.952Z,21.16
2018-12-05T05:57:21.551Z,21.14
2018-12-05T05:57:53.160Z,21.13
2018-12-05T05:58:24.759Z,21.11
2018-12-05T05:58:56.360Z,21.11
2018-12-05T05:59:27.963Z,21.08
2018-12-05T05:59:59.633Z,21.09
2018-12-05T06:00:31.235Z,21.08
2018-12-05T06:01:02.836Z,21.05
2018-12-05T06:01:34.463Z,21.06
2018-12-05T06:02:06.058Z,21.04
2018-12-05T06:02:37.650Z,21.04
2018-12-05T06:03:09.246Z,21.04
2018-12-05T06:03:40.852Z,21.03
2018-12-05T06:04:12.436Z,21.01
2018-12-05T06:04:44.030Z,21.00
2018-12-05T06:05:15.650Z,21.00
2018-12-05T06:05:47.251Z,20.98
2018-12-05T06:06:18.856Z,20.98
2018-12-05T06:06:50.484Z,20.97
2018-12-05T06:07:22.083Z,20.95
2018-12-05T06:07:53.683Z,20.95
2018-12-05T06:08:25.293Z,20.95
2018-12-05T06:08:56.894Z,20.95
2018-12-05T06:09:28.487Z,20.93
2018-12-05T06:10:00.091Z,20.92
2018-12-05T06:10:31.701Z,20.92
2018-12-05T06:11:03.284Z,20.91
2018-12-05T06:11:34.912Z,20.89
2018-12-05T06:12:06.510Z,20.89
2018-12-05T06:12:38.112Z,20.89
2018-12-05T06:13:09.723Z,20.89
2018-12-05T06:13:41.327Z,20.89
2018-12-05T06:14:12.923Z,20.89
2018-12-05T06:14:44.518Z,20.90
2018-12-05T06:15:16.111Z,20.90
2018-12-05T06:15:47.705Z,20.90
2018-12-05T06:16:19.312Z,20.90
2018-12-05T06:16:50.909Z,20.89
2018-12-05T06:17:22.515Z,20.89
2018-12-05T06:17:54.111Z,20.89
2018-12-05T06:18:25.716Z,20.89
2018-12-05T06:18:57.315Z,20.89
2018-12-05T06:19:28.897Z,20.89
2018-12-05T06:20:00.493Z,20.89
2018-12-05T06:20:32.105Z,20.90
2018-12-05T06:21:03.709Z,20.91
2018-12-05T06:21:35.316Z,20.91
2018-12-05T06:22:06.905Z,20.92
2018-12-05T06:22:38.503Z,20.93
2018-12-05T06:23:10.098Z,20.95
2018-12-05T06:23:41.694Z,20.97
2018-12-05T06:24:13.295Z,20.97
2018-12-05T06:24:44.909Z,20.98
2018-12-05T06:25:16.517Z,20.99
2018-12-05T06:25:48.114Z,21.00
2018-12-05T06:26:19.706Z,21.02
2018-12-05T06:26:51.302Z,21.04
2018-12-05T06:27:22.919Z,21.05
2018-12-05T06:27:54.513Z,21.07
2018-12-05T06:28:26.102Z,21.09
2018-12-05T06:28:57.702Z,21.10
2018-12-05T06:29:29.302Z,21.13
2018-12-05T06:30:00.906Z,21.14
2018-12-05T06:30:32.496Z,21.17
2018-12-05T06:31:04.100Z,21.19
2018-12-05T06:31:35.729Z,21.21
2018-12-05T06:32:07.338Z,21.24
2018-12-05T06:32:38.920Z,21.28
2018-12-05T06:33:10.518Z,21.29
2018-12-05T06:33:42.122Z,21.33
2018-12-05T06:34:13.726Z,21.35
2018-12-05T06:34:45.335Z,21.37
2018-12-05T06:35:16.933Z,21.39
2018-12-05T06:35:48.520Z,21.42
2018-12-05T06:36:20.128Z,21.45
2018-12-05T06:36:51.735Z,21.48
2018-12-05T06:37:23.319Z,21.51
2018-12-05T06:37:54.924Z,21.53
2018-12-05T06:38:26.520Z,21.55
2018-12-05T06:38:59.477Z,21.58
2018-12-05T06:39:29.783Z,21.59
2018-12-05T06:40:01.378Z,21.63
2018-12-05T06:40:32.981Z,21.64
2018-12-05T06:41:04.592Z,21.64
2018-12-05T06:41:36.190Z,21.67
2018-12-05T06:42:07.782Z,21.67
2018-12-05T06:42:39.379Z,21.69
2018-12-05T06:43:10.992Z,21.70
2018-12-05T06:43:42.590Z,21.72
2018-12-05T06:44:14.196Z,21.73
2018-12-05T06:44:45.790Z,21.75
2018-12-05T06:45:17.382Z,21.76
2018-12-05T06:45:48.987Z,21.75
2018-12-05T06:46:20.600Z,21.77
2018-12-05T06:46:52.222Z,21.79
2018-12-05T06:47:23.804Z,21.79